sensor_id;sensor_type;location;lat;lon;timestamp;pressure;altitude;pressure_sealevel;temperature;humidity
77454;BME280;66538;53.150;18.160;2023-04-02T00:01:37;100781.79;;;4.08;80.64
77454;BME280;66538;53.150;18.160;2023-04-02T00:06:35;100781.79;;;4.08;80.26
77454;BME280;66538;53.150;18.160;2023-04-02T00:11:38;100786.73;;;4.08;80.29
77454;BME280;66538;53.150;18.160;2023-04-02T00:14:17;100791.32;;;4.09;80.39
77454;BME280;66538;53.150;18.160;2023-04-02T00:16:47;100790.89;;;4.08;80.38
77454;BME280;66538;53.150;18.160;2023-04-02T00:19:18;100792.45;;;4.08;79.92
77454;BME280;66538;53.150;18.160;2023-04-02T00:21:49;100796.20;;;4.08;80.08
77454;BME280;66538;53.150;18.160;2023-04-02T00:24:20;100799.51;;;4.09;79.66
77454;BME280;66538;53.150;18.160;2023-04-02T00:26:49;100799.59;;;4.08;79.60
77454;BME280;66538;53.150;18.160;2023-04-02T00:29:18;100799.63;;;4.08;79.43
77454;BME280;66538;53.150;18.160;2023-04-02T00:31:52;100804.76;;;4.09;79.40
77454;BME280;66538;53.150;18.160;2023-04-02T00:34:24;100808.44;;;4.08;79.43
77454;BME280;66538;53.150;18.160;2023-04-02T00:36:53;100812.14;;;4.10;79.41
77454;BME280;66538;53.150;18.160;2023-04-02T00:39:25;100810.73;;;4.09;79.68
77454;BME280;66538;53.150;18.160;2023-04-02T00:41:56;100811.05;;;4.09;79.48
77454;BME280;66538;53.150;18.160;2023-04-02T00:44:43;100815.27;;;4.08;78.97
77454;BME280;66538;53.150;18.160;2023-04-02T00:49:42;100817.66;;;4.07;79.38
77454;BME280;66538;53.150;18.160;2023-04-02T00:52:15;100813.19;;;4.07;78.89
77454;BME280;66538;53.150;18.160;2023-04-02T00:55:07;100819.95;;;4.06;78.64
77454;BME280;66538;53.150;18.160;2023-04-02T00:57:36;100819.73;;;4.07;78.22
77454;BME280;66538;53.150;18.160;2023-04-02T01:02:44;100826.92;;;4.06;78.74
77454;BME280;66538;53.150;18.160;2023-04-02T01:05:33;100827.89;;;4.05;78.67
77454;BME280;66538;53.150;18.160;2023-04-02T01:08:05;100836.63;;;4.04;78.54
77454;BME280;66538;53.150;18.160;2023-04-02T01:13:36;100843.02;;;4.02;78.42
77454;BME280;66538;53.150;18.160;2023-04-02T01:16:21;100850.36;;;4.02;78.83
77454;BME280;66538;53.150;18.160;2023-04-02T01:24:29;100858.48;;;4.01;78.87
77454;BME280;66538;53.150;18.160;2023-04-02T01:27:00;100859.63;;;4.01;78.89
77454;BME280;66538;53.150;18.160;2023-04-02T01:29:30;100862.08;;;4.00;78.90
77454;BME280;66538;53.150;18.160;2023-04-02T01:32:05;100863.57;;;4.00;79.18
77454;BME280;66538;53.150;18.160;2023-04-02T01:34:33;100870.77;;;3.99;79.10
77454;BME280;66538;53.150;18.160;2023-04-02T01:39:45;100871.58;;;4.01;78.22
77454;BME280;66538;53.150;18.160;2023-04-02T01:42:34;100876.80;;;4.00;77.70
77454;BME280;66538;53.150;18.160;2023-04-02T01:45:23;100883.17;;;3.98;77.59
77454;BME280;66538;53.150;18.160;2023-04-02T01:47:50;100881.13;;;3.96;77.29
77454;BME280;66538;53.150;18.160;2023-04-02T01:50:29;100884.65;;;3.95;77.30
77454;BME280;66538;53.150;18.160;2023-04-02T01:53:04;100884.46;;;3.93;77.42
77454;BME280;66538;53.150;18.160;2023-04-02T01:58:04;100890.32;;;3.91;77.73
77454;BME280;66538;53.150;18.160;2023-04-02T02:00:33;100891.69;;;3.90;77.49
77454;BME280;66538;53.150;18.160;2023-04-02T02:03:02;100895.81;;;3.88;77.54
77454;BME280;66538;53.150;18.160;2023-04-02T02:05:32;100899.20;;;3.86;77.73
77454;BME280;66538;53.150;18.160;2023-04-02T02:07:59;100899.74;;;3.85;78.14
77454;BME280;66538;53.150;18.160;2023-04-02T02:10:33;100900.41;;;3.84;77.72
77454;BME280;66538;53.150;18.160;2023-04-02T02:13:01;100906.05;;;3.84;77.62
77454;BME280;66538;53.150;18.160;2023-04-02T02:15:31;100909.52;;;3.83;77.43
77454;BME280;66538;53.150;18.160;2023-04-02T02:18:02;100912.08;;;3.83;77.67
77454;BME280;66538;53.150;18.160;2023-04-02T02:20:30;100911.90;;;3.83;77.69
77454;BME280;66538;53.150;18.160;2023-04-02T02:22:58;100917.86;;;3.82;77.29
77454;BME280;66538;53.150;18.160;2023-04-02T02:25:30;100920.43;;;3.82;76.90
77454;BME280;66538;53.150;18.160;2023-04-02T02:30:35;100924.96;;;3.83;77.27
77454;BME280;66538;53.150;18.160;2023-04-02T02:38:52;100924.64;;;3.82;77.31
77454;BME280;66538;53.150;18.160;2023-04-02T02:41:56;100930.40;;;3.81;77.21
77454;BME280;66538;53.150;18.160;2023-04-02T02:44:29;100929.73;;;3.81;77.42
77454;BME280;66538;53.150;18.160;2023-04-02T02:47:11;100932.39;;;3.80;77.23
77454;BME280;66538;53.150;18.160;2023-04-02T02:49:42;100935.86;;;3.79;76.99
77454;BME280;66538;53.150;18.160;2023-04-02T02:54:54;100941.92;;;3.76;77.18
77454;BME280;66538;53.150;18.160;2023-04-02T02:57:26;100944.08;;;3.74;77.04
77454;BME280;66538;53.150;18.160;2023-04-02T02:59:57;100951.23;;;3.73;76.86
77454;BME280;66538;53.150;18.160;2023-04-02T03:02:27;100947.45;;;3.72;76.66
77454;BME280;66538;53.150;18.160;2023-04-02T03:04:55;100950.48;;;3.70;76.80
77454;BME280;66538;53.150;18.160;2023-04-02T03:07:25;100952.73;;;3.72;77.08
77454;BME280;66538;53.150;18.160;2023-04-02T03:10:03;100956.42;;;3.71;76.96
77454;BME280;66538;53.150;18.160;2023-04-02T03:15:39;100965.77;;;3.71;77.03
77454;BME280;66538;53.150;18.160;2023-04-02T03:18:45;100966.27;;;3.70;77.08
77454;BME280;66538;53.150;18.160;2023-04-02T03:24:25;100974.11;;;3.70;77.38
77454;BME280;66538;53.150;18.160;2023-04-02T03:27:02;100979.52;;;3.70;77.34
77454;BME280;66538;53.150;18.160;2023-04-02T03:29:34;100981.83;;;3.70;77.51
77454;BME280;66538;53.150;18.160;2023-04-02T03:32:25;100983.67;;;3.67;77.53
77454;BME280;66538;53.150;18.160;2023-04-02T03:35:24;100984.36;;;3.62;77.96
77454;BME280;66538;53.150;18.160;2023-04-02T03:38:05;100986.89;;;3.56;77.93
77454;BME280;66538;53.150;18.160;2023-04-02T03:40:38;100992.80;;;3.53;78.40
77454;BME280;66538;53.150;18.160;2023-04-02T03:43:28;100998.39;;;3.52;78.55
77454;BME280;66538;53.150;18.160;2023-04-02T03:48:52;101005.13;;;3.45;78.82
77454;BME280;66538;53.150;18.160;2023-04-02T03:51:33;101009.27;;;3.42;78.62
77454;BME280;66538;53.150;18.160;2023-04-02T03:54:02;101013.69;;;3.39;78.77
77454;BME280;66538;53.150;18.160;2023-04-02T03:56:31;101019.82;;;3.37;79.05
77454;BME280;66538;53.150;18.160;2023-04-02T03:59:41;101020.71;;;3.32;79.28
77454;BME280;66538;53.150;18.160;2023-04-02T04:02:43;101028.90;;;3.27;79.85
77454;BME280;66538;53.150;18.160;2023-04-02T04:07:46;101038.89;;;3.20;80.08
77454;BME280;66538;53.150;18.160;2023-04-02T04:10:23;101043.30;;;3.18;79.82
77454;BME280;66538;53.150;18.160;2023-04-02T04:12:54;101042.32;;;3.17;79.91
77454;BME280;66538;53.150;18.160;2023-04-02T04:21:05;101052.96;;;3.16;79.70
77454;BME280;66538;53.150;18.160;2023-04-02T04:23:40;101055.52;;;3.17;79.61
77454;BME280;66538;53.150;18.160;2023-04-02T04:26:32;101061.00;;;3.19;79.55
77454;BME280;66538;53.150;18.160;2023-04-02T04:31:46;101064.35;;;3.21;79.54
77454;BME280;66538;53.150;18.160;2023-04-02T04:36:57;101072.61;;;3.19;79.37
77454;BME280;66538;53.150;18.160;2023-04-02T04:39:35;101079.03;;;3.20;79.13
77454;BME280;66538;53.150;18.160;2023-04-02T04:42:14;101084.39;;;3.20;79.60
77454;BME280;66538;53.150;18.160;2023-04-02T04:44:54;101088.28;;;3.21;80.05
77454;BME280;66538;53.150;18.160;2023-04-02T04:47:31;101087.65;;;3.21;79.67
77454;BME280;66538;53.150;18.160;2023-04-02T04:50:21;101091.17;;;3.22;79.77
77454;BME280;66538;53.150;18.160;2023-04-02T04:52:52;101098.89;;;3.20;79.48
77454;BME280;66538;53.150;18.160;2023-04-02T04:55:26;101100.99;;;3.20;79.98
77454;BME280;66538;53.150;18.160;2023-04-02T04:57:57;101111.39;;;3.19;80.06
77454;BME280;66538;53.150;18.160;2023-04-02T05:00:37;101115.83;;;3.18;80.10
77454;BME280;66538;53.150;18.160;2023-04-02T05:05:43;101123.33;;;3.17;80.16
77454;BME280;66538;53.150;18.160;2023-04-02T05:08:12;101127.91;;;3.15;80.22
77454;BME280;66538;53.150;18.160;2023-04-02T05:11:06;101132.50;;;3.14;80.17
77454;BME280;66538;53.150;18.160;2023-04-02T05:13:51;101134.98;;;3.10;80.53
77454;BME280;66538;53.150;18.160;2023-04-02T05:16:30;101141.70;;;3.07;80.69
77454;BME280;66538;53.150;18.160;2023-04-02T05:21:50;101144.28;;;3.01;80.76
77454;BME280;66538;53.150;18.160;2023-04-02T05:30:30;101155.02;;;3.04;80.70
77454;BME280;66538;53.150;18.160;2023-04-02T05:33:05;101158.64;;;3.06;80.51
77454;BME280;66538;53.150;18.160;2023-04-02T05:35:35;101156.56;;;3.10;80.37
77454;BME280;66538;53.150;18.160;2023-04-02T05:38:04;101157.88;;;3.12;80.67
77454;BME280;66538;53.150;18.160;2023-04-02T05:40:39;101162.51;;;3.15;80.45
77454;BME280;66538;53.150;18.160;2023-04-02T05:43:09;101165.79;;;3.18;79.91
77454;BME280;66538;53.150;18.160;2023-04-02T05:45:45;101168.80;;;3.20;79.96
77454;BME280;66538;53.150;18.160;2023-04-02T05:48:25;101169.74;;;3.24;79.87
77454;BME280;66538;53.150;18.160;2023-04-02T05:50:56;101178.98;;;3.24;79.67
77454;BME280;66538;53.150;18.160;2023-04-02T05:56:10;101184.93;;;3.28;79.64
77454;BME280;66538;53.150;18.160;2023-04-02T05:59:17;101196.48;;;3.30;79.57
77454;BME280;66538;53.150;18.160;2023-04-02T06:01:57;101201.38;;;3.35;79.45
77454;BME280;66538;53.150;18.160;2023-04-02T06:04:43;101206.52;;;3.39;79.98
77454;BME280;66538;53.150;18.160;2023-04-02T06:07:28;101207.42;;;3.42;79.26
77454;BME280;66538;53.150;18.160;2023-04-02T06:10:09;101212.33;;;3.46;79.18
77454;BME280;66538;53.150;18.160;2023-04-02T06:15:21;101224.87;;;3.52;79.35
77454;BME280;66538;53.150;18.160;2023-04-02T06:20:19;101232.33;;;3.60;78.84
77454;BME280;66538;53.150;18.160;2023-04-02T06:23:15;101230.01;;;3.63;78.96
77454;BME280;66538;53.150;18.160;2023-04-02T06:26:06;101237.77;;;3.66;78.43
77454;BME280;66538;53.150;18.160;2023-04-02T06:28:45;101241.91;;;3.68;78.50
77454;BME280;66538;53.150;18.160;2023-04-02T06:31:23;101246.58;;;3.69;77.74
77454;BME280;66538;53.150;18.160;2023-04-02T06:33:54;101248.23;;;3.69;78.17
77454;BME280;66538;53.150;18.160;2023-04-02T06:36:24;101252.70;;;3.71;78.06
77454;BME280;66538;53.150;18.160;2023-04-02T06:38:56;101255.71;;;3.72;77.60
77454;BME280;66538;53.150;18.160;2023-04-02T06:41:24;101260.76;;;3.73;77.76
77454;BME280;66538;53.150;18.160;2023-04-02T06:44:17;101261.77;;;3.76;77.90
77454;BME280;66538;53.150;18.160;2023-04-02T06:47:03;101263.37;;;3.80;77.69
77454;BME280;66538;53.150;18.160;2023-04-02T06:49:38;101262.28;;;3.82;77.40
77454;BME280;66538;53.150;18.160;2023-04-02T06:52:36;101266.83;;;3.85;77.33
77454;BME280;66538;53.150;18.160;2023-04-02T06:55:45;101276.94;;;3.85;77.11
77454;BME280;66538;53.150;18.160;2023-04-02T06:58:18;101278.92;;;3.88;77.85
77454;BME280;66538;53.150;18.160;2023-04-02T07:00:46;101284.16;;;3.91;77.38
77454;BME280;66538;53.150;18.160;2023-04-02T07:05:50;101291.84;;;3.93;77.38
77454;BME280;66538;53.150;18.160;2023-04-02T07:08:18;101291.38;;;3.93;77.88
77454;BME280;66538;53.150;18.160;2023-04-02T07:10:45;101295.39;;;3.94;77.72
77454;BME280;66538;53.150;18.160;2023-04-02T07:13:14;101301.55;;;3.94;76.90
77454;BME280;66538;53.150;18.160;2023-04-02T07:15:44;101311.08;;;3.94;77.33
77454;BME280;66538;53.150;18.160;2023-04-02T07:18:32;101309.92;;;3.95;77.01
77454;BME280;66538;53.150;18.160;2023-04-02T07:21:02;101316.80;;;3.96;77.36
77454;BME280;66538;53.150;18.160;2023-04-02T07:23:28;101316.15;;;3.98;77.12
77454;BME280;66538;53.150;18.160;2023-04-02T07:25:55;101321.45;;;3.98;76.99
77454;BME280;66538;53.150;18.160;2023-04-02T07:28:23;101324.38;;;3.99;76.92
77454;BME280;66538;53.150;18.160;2023-04-02T07:30:51;101326.39;;;4.03;77.55
77454;BME280;66538;53.150;18.160;2023-04-02T07:33:29;101332.71;;;4.06;77.08
77454;BME280;66538;53.150;18.160;2023-04-02T07:35:57;101330.18;;;4.06;76.60
77454;BME280;66538;53.150;18.160;2023-04-02T07:38:24;101333.52;;;4.11;77.14
77454;BME280;66538;53.150;18.160;2023-04-02T07:40:51;101333.63;;;4.16;76.78
77454;BME280;66538;53.150;18.160;2023-04-02T07:43:17;101336.05;;;4.22;76.02
77454;BME280;66538;53.150;18.160;2023-04-02T07:45:44;101337.77;;;4.31;76.08
77454;BME280;66538;53.150;18.160;2023-04-02T07:48:12;101336.47;;;4.42;75.34
77454;BME280;66538;53.150;18.160;2023-04-02T07:50:39;101342.38;;;4.52;74.83
77454;BME280;66538;53.150;18.160;2023-04-02T07:53:06;101343.64;;;4.63;74.90
77454;BME280;66538;53.150;18.160;2023-04-02T07:55:34;101344.83;;;4.74;74.78
77454;BME280;66538;53.150;18.160;2023-04-02T07:58:00;101353.03;;;4.85;74.08
77454;BME280;66538;53.150;18.160;2023-04-02T08:00:28;101350.54;;;4.94;74.08
77454;BME280;66538;53.150;18.160;2023-04-02T08:02:54;101355.55;;;5.00;73.43
77454;BME280;66538;53.150;18.160;2023-04-02T08:05:22;101359.55;;;5.07;73.58
77454;BME280;66538;53.150;18.160;2023-04-02T08:07:53;101356.16;;;5.20;73.48
77454;BME280;66538;53.150;18.160;2023-04-02T08:10:22;101365.75;;;5.32;73.13
77454;BME280;66538;53.150;18.160;2023-04-02T08:12:49;101360.95;;;5.43;73.16
77454;BME280;66538;53.150;18.160;2023-04-02T08:15:16;101368.54;;;5.53;72.61
77454;BME280;66538;53.150;18.160;2023-04-02T08:17:44;101372.24;;;5.55;71.89
77454;BME280;66538;53.150;18.160;2023-04-02T08:20:15;101375.73;;;5.55;72.36
77454;BME280;66538;53.150;18.160;2023-04-02T08:22:44;101374.77;;;5.55;72.48
77454;BME280;66538;53.150;18.160;2023-04-02T08:25:11;101379.25;;;5.54;72.31
77454;BME280;66538;53.150;18.160;2023-04-02T08:27:38;101385.22;;;5.49;72.31
77454;BME280;66538;53.150;18.160;2023-04-02T08:30:06;101392.85;;;5.48;72.07
77454;BME280;66538;53.150;18.160;2023-04-02T08:32:35;101391.86;;;5.41;72.09
77454;BME280;66538;53.150;18.160;2023-04-02T08:35:02;101401.39;;;5.46;71.66
77454;BME280;66538;53.150;18.160;2023-04-02T08:37:28;101401.48;;;5.46;71.95
77454;BME280;66538;53.150;18.160;2023-04-02T08:39:55;101402.23;;;5.50;72.04
77454;BME280;66538;53.150;18.160;2023-04-02T08:42:30;101403.95;;;5.65;72.43
77454;BME280;66538;53.150;18.160;2023-04-02T08:47:34;101408.84;;;6.05;71.32
77454;BME280;66538;53.150;18.160;2023-04-02T08:50:29;101411.10;;;6.14;71.15
77454;BME280;66538;53.150;18.160;2023-04-02T08:52:59;101414.64;;;6.34;71.00
77454;BME280;66538;53.150;18.160;2023-04-02T08:55:37;101414.96;;;6.45;70.60
77454;BME280;66538;53.150;18.160;2023-04-02T08:58:24;101419.21;;;6.54;70.29
77454;BME280;66538;53.150;18.160;2023-04-02T09:00:56;101419.80;;;6.64;69.90
77454;BME280;66538;53.150;18.160;2023-04-02T09:03:33;101422.80;;;6.80;69.19
77454;BME280;66538;53.150;18.160;2023-04-02T09:06:02;101421.98;;;6.89;68.22
77454;BME280;66538;53.150;18.160;2023-04-02T09:08:30;101421.91;;;6.99;68.57
77454;BME280;66538;53.150;18.160;2023-04-02T09:13:29;101421.19;;;7.17;67.92
77454;BME280;66538;53.150;18.160;2023-04-02T09:16:12;101428.05;;;7.16;67.82
77454;BME280;66538;53.150;18.160;2023-04-02T09:18:40;101430.45;;;7.10;68.31
77454;BME280;66538;53.150;18.160;2023-04-02T09:23:48;101438.70;;;7.08;68.23
77454;BME280;66538;53.150;18.160;2023-04-02T09:26:29;101444.89;;;7.09;67.24
77454;BME280;66538;53.150;18.160;2023-04-02T09:29:03;101451.21;;;7.11;68.04
77454;BME280;66538;53.150;18.160;2023-04-02T09:31:45;101455.17;;;7.13;67.62
77454;BME280;66538;53.150;18.160;2023-04-02T09:37:17;101470.62;;;7.08;67.11
77454;BME280;66538;53.150;18.160;2023-04-02T09:39:44;101467.79;;;7.05;67.07
77454;BME280;66538;53.150;18.160;2023-04-02T09:42:32;101472.87;;;7.10;67.11
77454;BME280;66538;53.150;18.160;2023-04-02T09:45:21;101473.00;;;7.22;67.44
77454;BME280;66538;53.150;18.160;2023-04-02T09:47:50;101484.14;;;7.36;66.72
77454;BME280;66538;53.150;18.160;2023-04-02T09:52:47;101485.10;;;7.45;65.00
77454;BME280;66538;53.150;18.160;2023-04-02T09:57:45;101490.00;;;7.45;65.82
77454;BME280;66538;53.150;18.160;2023-04-02T10:02:39;101498.51;;;7.38;66.23
77454;BME280;66538;53.150;18.160;2023-04-02T10:05:20;101506.39;;;7.41;65.67
77454;BME280;66538;53.150;18.160;2023-04-02T10:07:52;101507.14;;;7.41;65.03
77454;BME280;66538;53.150;18.160;2023-04-02T10:10:22;101506.92;;;7.42;65.45
77454;BME280;66538;53.150;18.160;2023-04-02T10:16:02;101514.55;;;7.53;64.60
77454;BME280;66538;53.150;18.160;2023-04-02T10:19:02;101515.16;;;7.56;64.70
77454;BME280;66538;53.150;18.160;2023-04-02T10:21:35;101519.83;;;7.67;64.11
77454;BME280;66538;53.150;18.160;2023-04-02T10:24:11;101526.23;;;7.76;64.13
77454;BME280;66538;53.150;18.160;2023-04-02T10:27:06;101532.60;;;7.86;63.67
77454;BME280;66538;53.150;18.160;2023-04-02T10:38:25;101551.94;;;7.94;64.26
77454;BME280;66538;53.150;18.160;2023-04-02T10:43:45;101550.91;;;7.79;63.53
77454;BME280;66538;53.150;18.160;2023-04-02T10:49:40;101557.66;;;7.61;64.53
77454;BME280;66538;53.150;18.160;2023-04-02T10:52:28;101558.64;;;7.65;64.10
77454;BME280;66538;53.150;18.160;2023-04-02T10:55:01;101557.22;;;7.71;63.77
77454;BME280;66538;53.150;18.160;2023-04-02T10:57:36;101565.35;;;7.75;64.02
77454;BME280;66538;53.150;18.160;2023-04-02T11:00:21;101568.77;;;7.78;63.95
77454;BME280;66538;53.150;18.160;2023-04-02T11:10:43;101586.88;;;7.76;62.74
77454;BME280;66538;53.150;18.160;2023-04-02T11:13:27;101589.86;;;7.80;63.09
77454;BME280;66538;53.150;18.160;2023-04-02T11:15:56;101599.02;;;7.86;61.86
77454;BME280;66538;53.150;18.160;2023-04-02T11:18:42;101601.18;;;7.80;61.04
77454;BME280;66538;53.150;18.160;2023-04-02T11:21:52;101603.27;;;7.76;61.16
77454;BME280;66538;53.150;18.160;2023-04-02T11:29:34;101608.07;;;7.78;62.70
77454;BME280;66538;53.150;18.160;2023-04-02T11:32:25;101613.02;;;7.91;62.27
77454;BME280;66538;53.150;18.160;2023-04-02T11:37:39;101612.36;;;8.02;60.81
77454;BME280;66538;53.150;18.160;2023-04-02T11:42:42;101620.04;;;8.10;61.46
77454;BME280;66538;53.150;18.160;2023-04-02T11:50:44;101627.41;;;8.10;59.20
77454;BME280;66538;53.150;18.160;2023-04-02T11:56:14;101636.89;;;8.15;58.98
77454;BME280;66538;53.150;18.160;2023-04-02T11:58:52;101637.54;;;8.21;59.66
77454;BME280;66538;53.150;18.160;2023-04-02T12:01:48;101647.33;;;8.30;59.69
77454;BME280;66538;53.150;18.160;2023-04-02T12:09:58;101658.45;;;8.50;58.44
77454;BME280;66538;53.150;18.160;2023-04-02T12:12:33;101659.36;;;8.53;58.32
77454;BME280;66538;53.150;18.160;2023-04-02T12:15:04;101664.30;;;8.54;57.81
77454;BME280;66538;53.150;18.160;2023-04-02T12:17:37;101668.88;;;8.56;57.56
77454;BME280;66538;53.150;18.160;2023-04-02T12:22:40;101680.58;;;8.62;56.95
77454;BME280;66538;53.150;18.160;2023-04-02T12:25:26;101677.08;;;8.67;56.13
77454;BME280;66538;53.150;18.160;2023-04-02T12:30:37;101682.98;;;8.68;56.37
77454;BME280;66538;53.150;18.160;2023-04-02T12:35:49;101691.03;;;8.77;55.77
77454;BME280;66538;53.150;18.160;2023-04-02T12:38:23;101685.58;;;8.88;56.25
77454;BME280;66538;53.150;18.160;2023-04-02T12:43:37;101693.73;;;9.11;55.72
77454;BME280;66538;53.150;18.160;2023-04-02T12:46:06;101698.88;;;9.15;55.31
77454;BME280;66538;53.150;18.160;2023-04-02T12:48:34;101707.60;;;9.13;53.87
77454;BME280;66538;53.150;18.160;2023-04-02T12:51:02;101708.09;;;9.04;54.43
77454;BME280;66538;53.150;18.160;2023-04-02T12:53:35;101713.63;;;9.04;54.70
77454;BME280;66538;53.150;18.160;2023-04-02T12:56:03;101709.23;;;9.00;53.94
77454;BME280;66538;53.150;18.160;2023-04-02T12:58:40;101715.98;;;8.96;53.83
77454;BME280;66538;53.150;18.160;2023-04-02T13:01:19;101721.40;;;8.88;53.74
77454;BME280;66538;53.150;18.160;2023-04-02T13:06:33;101726.88;;;8.82;54.34
77454;BME280;66538;53.150;18.160;2023-04-02T13:09:03;101727.80;;;8.80;53.73
77454;BME280;66538;53.150;18.160;2023-04-02T13:14:02;101737.38;;;8.88;53.19
77454;BME280;66538;53.150;18.160;2023-04-02T13:16:36;101736.61;;;8.92;53.05
77454;BME280;66538;53.150;18.160;2023-04-02T13:21:37;101747.29;;;8.92;52.57
77454;BME280;66538;53.150;18.160;2023-04-02T13:24:15;101755.25;;;8.92;52.94
77454;BME280;66538;53.150;18.160;2023-04-02T13:26:42;101753.20;;;8.92;52.75
77454;BME280;66538;53.150;18.160;2023-04-02T13:29:52;101760.81;;;8.96;52.98
77454;BME280;66538;53.150;18.160;2023-04-02T13:32:01;101766.09;;;8.99;52.87
77454;BME280;66538;53.150;18.160;2023-04-02T13:34:28;101763.55;;;9.09;52.62
77454;BME280;66538;53.150;18.160;2023-04-02T13:36:56;101771.54;;;9.17;51.32
77454;BME280;66538;53.150;18.160;2023-04-02T13:39:24;101776.34;;;9.21;51.72
77454;BME280;66538;53.150;18.160;2023-04-02T13:41:56;101785.17;;;9.41;52.28
77454;BME280;66538;53.150;18.160;2023-04-02T13:44:28;101777.73;;;9.85;51.46
77454;BME280;66538;53.150;18.160;2023-04-02T13:46:56;101784.69;;;10.22;49.31
77454;BME280;66538;53.150;18.160;2023-04-02T13:49:24;101788.14;;;10.48;49.04
77454;BME280;66538;53.150;18.160;2023-04-02T13:51:56;101786.70;;;10.75;47.64
77454;BME280;66538;53.150;18.160;2023-04-02T13:57:06;101786.24;;;11.86;45.16
77454;BME280;66538;53.150;18.160;2023-04-02T13:59:32;101788.15;;;12.35;44.27
77454;BME280;66538;53.150;18.160;2023-04-02T14:02:05;101784.35;;;13.58;42.59
77454;BME280;66538;53.150;18.160;2023-04-02T14:04:39;101790.16;;;14.22;41.45
77454;BME280;66538;53.150;18.160;2023-04-02T14:07:28;101787.45;;;15.92;39.57
77454;BME280;66538;53.150;18.160;2023-04-02T14:10:10;101782.13;;;18.41;37.22
77454;BME280;66538;53.150;18.160;2023-04-02T14:12:50;101784.46;;;18.32;35.24
77454;BME280;66538;53.150;18.160;2023-04-02T14:21:19;101806.13;;;19.77;32.28
77454;BME280;66538;53.150;18.160;2023-04-02T14:32:42;101810.00;;;22.05;28.10
77454;BME280;66538;53.150;18.160;2023-04-02T14:35:36;101818.88;;;22.29;27.76
77454;BME280;66538;53.150;18.160;2023-04-02T14:38:29;101815.00;;;22.60;26.16
77454;BME280;66538;53.150;18.160;2023-04-02T14:41:04;101820.14;;;21.84;26.90
77454;BME280;66538;53.150;18.160;2023-04-02T14:43:48;101824.05;;;21.84;26.72
77454;BME280;66538;53.150;18.160;2023-04-02T14:46:17;101815.84;;;22.94;25.81
77454;BME280;66538;53.150;18.160;2023-04-02T14:48:55;101830.19;;;22.91;24.87
77454;BME280;66538;53.150;18.160;2023-04-02T14:51:27;101830.59;;;23.70;23.41
77454;BME280;66538;53.150;18.160;2023-04-02T14:54:34;101837.41;;;23.98;22.56
77454;BME280;66538;53.150;18.160;2023-04-02T14:57:09;101831.15;;;24.07;21.58
77454;BME280;66538;53.150;18.160;2023-04-02T15:05:19;101849.08;;;24.56;21.19
77454;BME280;66538;53.150;18.160;2023-04-02T15:07:57;101847.08;;;24.62;20.86
77454;BME280;66538;53.150;18.160;2023-04-02T15:10:37;101854.04;;;24.88;20.45
77454;BME280;66538;53.150;18.160;2023-04-02T15:13:13;101854.39;;;24.96;20.02
77454;BME280;66538;53.150;18.160;2023-04-02T15:18:16;101882.05;;;24.85;19.72
77454;BME280;66538;53.150;18.160;2023-04-02T15:20:56;101876.94;;;24.92;20.09
77454;BME280;66538;53.150;18.160;2023-04-02T15:29:25;101878.67;;;25.26;18.95
77454;BME280;66538;53.150;18.160;2023-04-02T15:32:15;101880.70;;;25.15;19.36
77454;BME280;66538;53.150;18.160;2023-04-02T15:34:54;101884.48;;;25.40;19.50
77454;BME280;66538;53.150;18.160;2023-04-02T15:37:44;101890.59;;;25.32;18.80
77454;BME280;66538;53.150;18.160;2023-04-02T15:40:24;101888.16;;;25.48;19.77
77454;BME280;66538;53.150;18.160;2023-04-02T15:49:42;101892.94;;;25.81;18.55
77454;BME280;66538;53.150;18.160;2023-04-02T15:52:24;101904.09;;;25.58;17.91
77454;BME280;66538;53.150;18.160;2023-04-02T16:00:44;101929.89;;;24.59;19.63
77454;BME280;66538;53.150;18.160;2023-04-02T16:10:59;101942.36;;;23.69;20.04
77454;BME280;66538;53.150;18.160;2023-04-02T16:13:33;101955.98;;;21.41;21.92
77454;BME280;66538;53.150;18.160;2023-04-02T16:22:12;101964.80;;;20.83;22.37
77454;BME280;66538;53.150;18.160;2023-04-02T16:24:40;101969.48;;;20.70;23.02
77454;BME280;66538;53.150;18.160;2023-04-02T16:33:08;101991.34;;;17.64;25.73
77454;BME280;66538;53.150;18.160;2023-04-02T16:35:46;102001.29;;;15.45;28.06
77454;BME280;66538;53.150;18.160;2023-04-02T16:41:42;102015.27;;;12.20;32.50
77454;BME280;66538;53.150;18.160;2023-04-02T16:44:27;102018.20;;;10.84;34.83
77454;BME280;66538;53.150;18.160;2023-04-02T16:47:05;102020.30;;;9.95;36.84
77454;BME280;66538;53.150;18.160;2023-04-02T16:49:48;102018.11;;;9.26;38.57
77454;BME280;66538;53.150;18.160;2023-04-02T16:58:02;102036.97;;;7.71;40.93
77454;BME280;66538;53.150;18.160;2023-04-02T17:07:04;102058.83;;;6.51;45.35
77454;BME280;66538;53.150;18.160;2023-04-02T17:09:43;102059.84;;;6.21;45.16
77454;BME280;66538;53.150;18.160;2023-04-02T17:12:19;102068.42;;;5.98;45.53
77454;BME280;66538;53.150;18.160;2023-04-02T17:14:51;102067.94;;;5.76;46.07
77454;BME280;66538;53.150;18.160;2023-04-02T17:17:21;102072.23;;;5.55;47.08
77454;BME280;66538;53.150;18.160;2023-04-02T17:19:54;102075.53;;;5.36;47.78
77454;BME280;66538;53.150;18.160;2023-04-02T17:22:21;102078.77;;;5.18;47.94
77454;BME280;66538;53.150;18.160;2023-04-02T17:24:55;102085.92;;;5.05;48.53
77454;BME280;66538;53.150;18.160;2023-04-02T17:27:34;102087.21;;;4.92;48.40
77454;BME280;66538;53.150;18.160;2023-04-02T17:30:11;102096.90;;;4.80;49.71
77454;BME280;66538;53.150;18.160;2023-04-02T17:32:40;102100.28;;;4.67;50.47
77454;BME280;66538;53.150;18.160;2023-04-02T17:35:16;102096.75;;;4.58;49.37